Time;durP1;ratioP1;P1;durP2;ratioP2;P2;SDS_P1;SDS_P2;PMS_P1;PMS_P2;Temp;Humidity;BMP_temperature;BMP_pressure;BME280_temperature;BME280_humidity;BME280_pressure;Samples;Min_cycle;Max_cycle;Signal;HPM_P1;HPM_P2
2023/06/11 00:01:53;;;;;;;11.10;8.40;;;23.00;58.90;;;22.58;49.52;100515.91;4988783;28;20042;-83
2023/06/11 00:04:25;;;;;;;12.32;8.73;;;23.00;59.10;;;22.55;49.71;100524.66;4979709;28;20077;-85
2023/06/11 00:06:54;;;;;;;12.40;8.43;;;23.00;59.40;;;22.51;49.82;100517.34;4988935;28;20052;-85
2023/06/11 00:09:26;;;;;;;14.40;8.70;;;22.90;59.60;;;22.46;49.93;100517.41;4997654;28;20105;-84
2023/06/11 00:11:54;;;;;;;10.77;8.48;;;22.90;59.80;;;22.44;50.01;100517.69;4992623;28;20034;-83
2023/06/11 00:14:23;;;;;;;13.70;8.70;;;22.90;60.00;;;22.39;50.00;100511.50;4972936;28;20508;-84
2023/06/11 00:16:51;;;;;;;10.90;8.45;;;22.80;60.00;;;22.38;50.33;100516.13;4989872;28;20038;-84
2023/06/11 00:19:19;;;;;;;12.13;8.65;;;22.80;60.20;;;22.34;50.43;100512.38;4988514;28;20134;-83
2023/06/11 00:21:48;;;;;;;12.48;9.23;;;22.70;60.50;;;22.31;50.55;100510.25;4989147;28;20073;-86
2023/06/11 00:24:16;;;;;;;11.77;8.55;;;22.80;60.60;;;22.28;50.67;100510.81;4969085;28;20046;-83
2023/06/11 00:26:43;;;;;;;12.15;8.68;;;22.70;60.60;;;22.24;50.64;100512.47;4989414;28;20069;-85
2023/06/11 00:29:13;;;;;;;11.98;8.90;;;22.70;60.60;;;22.22;50.50;100511.97;4991033;28;20081;-85
2023/06/11 00:34:31;;;;;;;10.32;8.55;;;22.60;60.50;;;22.19;50.50;100509.81;4971601;28;20061;-85
2023/06/11 00:37:00;;;;;;;12.20;8.70;;;22.60;60.70;;;22.16;50.62;100519.38;4976043;28;20049;-84
2023/06/11 00:39:27;;;;;;;10.32;8.80;;;22.60;60.80;;;22.14;50.48;100512.59;4976024;28;20074;-85
2023/06/11 00:41:57;;;;;;;13.02;9.15;;;22.50;60.80;;;22.12;50.88;100509.34;4969730;28;20499;-84
2023/06/11 00:44:24;;;;;;;10.45;8.27;;;22.50;61.00;;;22.10;50.60;100504.16;4987434;28;20136;-84
2023/06/11 00:46:54;;;;;;;13.80;9.38;;;22.50;61.00;;;22.10;50.59;100504.97;4987387;28;20129;-84
2023/06/11 00:49:21;;;;;;;11.20;8.25;;;22.40;61.00;;;22.07;50.69;100511.00;4988873;28;20046;-83
2023/06/11 00:51:50;;;;;;;11.77;8.70;;;22.50;61.30;;;22.05;50.85;100502.31;4988742;28;20041;-85
2023/06/11 00:54:19;;;;;;;10.35;8.70;;;22.50;61.50;;;22.04;51.16;100508.03;4967577;28;20066;-85
2023/06/11 00:56:46;;;;;;;11.02;8.35;;;22.40;61.50;;;22.02;51.00;100511.03;4979603;28;20054;-86
2023/06/11 00:59:17;;;;;;;9.43;8.13;;;22.40;61.50;;;22.00;50.69;100498.84;4989509;28;20050;-85
2023/06/11 01:01:56;;;;;;;13.23;9.23;;;22.40;61.40;;;22.00;50.79;100502.34;4985689;28;20042;-83
2023/06/11 01:04:41;;;;;;;12.45;9.23;;;22.40;61.30;;;21.97;51.04;100508.38;4968672;28;20050;-87
2023/06/11 01:07:16;;;;;;;13.68;8.82;;;22.30;61.90;;;21.94;51.49;100506.22;4997584;28;20069;-85
2023/06/11 01:09:47;;;;;;;13.40;9.50;;;22.30;61.80;;;21.92;51.02;100499.47;4974606;28;20046;-84
2023/06/11 01:12:14;;;;;;;11.50;8.60;;;22.30;62.00;;;21.90;51.23;100498.94;4989034;28;20074;-84
2023/06/11 01:14:44;;;;;;;12.52;9.20;;;22.30;62.20;;;21.85;51.53;100502.50;4974254;28;20044;-83
2023/06/11 01:17:41;;;;;;;10.77;9.05;;;22.20;62.10;;;21.80;51.82;100500.63;4980892;28;20042;-86
2023/06/11 01:20:18;;;;;;;13.43;9.30;;;22.20;62.40;;;21.78;51.90;100502.84;4982175;28;20077;-83
2023/06/11 01:23:22;;;;;;;17.08;9.55;;;22.20;62.50;;;21.76;51.80;100507.72;4982579;28;20042;-83
2023/06/11 01:26:19;;;;;;;10.90;8.98;;;22.20;62.40;;;21.74;51.69;100509.13;4969738;28;20082;-84
2023/06/11 01:28:51;;;;;;;10.57;8.75;;;22.10;62.60;;;21.72;51.67;100519.47;4975242;28;20794;-86
2023/06/11 01:31:20;;;;;;;11.55;9.13;;;22.10;62.60;;;21.70;51.85;100513.50;4979896;28;20050;-83
2023/06/11 01:33:48;;;;;;;12.65;9.52;;;22.10;62.40;;;21.71;51.51;100509.69;4963933;28;20044;-85
2023/06/11 01:36:19;;;;;;;11.48;9.63;;;22.10;62.40;;;21.71;51.83;100509.69;4969773;28;20072;-85
2023/06/11 01:41:54;;;;;;;13.98;9.30;;;22.10;62.90;;;21.66;52.02;100510.53;4986335;28;20050;-84
2023/06/11 01:44:46;;;;;;;15.07;9.52;;;22.00;62.90;;;21.66;52.22;100507.81;4986607;28;20053;-84
2023/06/11 01:47:13;;;;;;;10.77;9.13;;;22.10;63.20;;;21.65;52.60;100510.81;4968314;28;20076;-85
2023/06/11 01:49:41;;;;;;;12.55;10.20;;;22.00;63.20;;;21.60;52.61;100500.81;4982204;28;20503;-86
2023/06/11 01:57:16;;;;;;;12.63;9.70;;;21.90;63.50;;;21.50;52.56;100518.00;4876129;29;20116;-83
2023/06/11 01:59:53;;;;;;;12.45;9.57;;;21.90;63.60;;;21.48;52.69;100513.97;4889842;29;20105;-86
2023/06/11 02:02:22;;;;;;;11.20;9.43;;;21.90;63.80;;;21.45;52.82;100518.03;4879902;29;20049;-85
2023/06/11 02:04:50;;;;;;;11.80;9.68;;;21.80;63.90;;;21.42;52.69;100512.34;4872621;29;20053;-83
2023/06/11 02:07:38;;;;;;;12.13;9.63;;;21.80;64.00;;;21.39;52.74;100511.03;4883985;29;20060;-84
2023/06/11 02:10:06;;;;;;;13.15;9.75;;;21.80;64.20;;;21.36;53.10;100511.56;4882671;29;20051;-84
2023/06/11 02:12:35;;;;;;;13.32;9.88;;;21.80;64.30;;;21.32;53.23;100507.81;4870735;29;20139;-83
2023/06/11 02:15:28;;;;;;;12.07;9.20;;;21.70;64.20;;;21.27;53.01;100511.31;4893771;29;20198;-84
2023/06/11 02:21:35;;;;;;;12.65;9.32;;;21.70;64.80;;;21.17;53.19;100516.00;4843788;29;20072;-85
2023/06/11 02:24:02;;;;;;;10.85;9.18;;;21.60;64.60;;;21.15;53.41;100521.72;4834965;29;20660;-83
2023/06/11 02:26:29;;;;;;;14.13;10.50;;;21.60;64.80;;;21.12;53.52;100527.69;4839213;29;20054;-83
2023/06/11 02:28:57;;;;;;;13.20;10.32;;;21.50;65.00;;;21.11;53.41;100536.13;4837120;29;20653;-86
2023/06/11 02:31:25;;;;;;;12.40;9.85;;;21.50;65.00;;;21.07;53.56;100536.69;4835232;29;20058;-85
2023/06/11 02:33:53;;;;;;;17.23;10.18;;;21.50;64.90;;;21.05;53.35;100528.03;4895847;29;20587;-83
2023/06/11 02:36:20;;;;;;;16.70;10.48;;;21.50;65.20;;;21.06;53.22;100536.97;4910417;29;20075;-86
2023/06/11 02:38:47;;;;;;;13.15;10.38;;;21.50;64.90;;;21.07;53.09;100533.16;4912122;29;20060;-85
2023/06/11 02:41:15;;;;;;;12.85;10.38;;;21.50;64.60;;;21.08;53.04;100529.34;4912327;29;20151;-84
2023/06/11 02:43:42;;;;;;;13.85;10.25;;;21.50;64.80;;;21.08;53.07;100537.47;4923193;29;20115;-87
2023/06/11 02:46:10;;;;;;;13.35;10.07;;;21.50;64.80;;;21.10;53.23;100535.31;4905759;29;20147;-83
2023/06/11 02:48:39;;;;;;;15.13;9.90;;;21.50;64.60;;;21.09;52.99;100526.38;4904397;29;20074;-84
2023/06/11 02:51:06;;;;;;;12.63;10.50;;;21.50;64.60;;;21.07;53.69;100525.03;4914201;29;20421;-86
2023/06/11 02:53:34;;;;;;;11.52;9.50;;;21.50;65.00;;;21.04;53.83;100520.16;4909742;29;20126;-84
2023/06/11 02:56:01;;;;;;;12.13;9.70;;;21.40;65.00;;;21.00;53.94;100525.34;4916671;29;20055;-84
2023/06/11 02:58:28;;;;;;;17.75;10.70;;;21.40;65.10;;;20.97;53.75;100531.31;4946837;28;20078;-83
2023/06/11 03:00:56;;;;;;;14.23;10.20;;;21.40;65.10;;;20.97;53.67;100535.91;4981594;28;20049;-84
2023/06/11 03:03:23;;;;;;;13.50;9.82;;;21.40;65.40;;;20.96;53.50;100529.69;4984791;28;20101;-85
2023/06/11 03:05:52;;;;;;;13.65;10.35;;;21.40;65.20;;;20.98;53.69;100529.41;4999680;23;20054;-79
2023/06/11 03:08:20;;;;;;;13.52;10.05;;;21.40;65.00;;;20.98;53.53;100521.25;4990321;28;20050;-78
2023/06/11 03:10:47;;;;;;;12.07;9.50;;;21.40;65.00;;;20.97;53.41;100531.31;4981491;28;20427;-78
2023/06/11 03:13:15;;;;;;;11.77;9.77;;;21.40;64.90;;;20.98;53.33;100532.13;4977150;28;20039;-78
2023/06/11 03:15:44;;;;;;;16.05;10.27;;;21.40;64.90;;;20.97;53.47;100525.06;4960115;28;20133;-78
2023/06/11 03:18:12;;;;;;;11.98;9.82;;;21.30;64.80;;;20.97;53.26;100525.06;4986062;28;20074;-80
2023/06/11 03:20:42;;;;;;;17.38;11.02;;;21.40;64.80;;;20.97;53.25;100525.06;4962090;28;20049;-79
2023/06/11 03:23:11;;;;;;;13.70;9.57;;;21.40;64.80;;;20.98;53.44;100532.13;4956198;28;20051;-80
2023/06/11 03:25:40;;;;;;;13.20;9.85;;;21.40;64.90;;;20.98;53.48;100527.50;4981908;28;20050;-80
2023/06/11 03:28:07;;;;;;;12.68;10.18;;;21.40;64.80;;;20.98;53.53;100532.91;4977139;28;20500;-80
2023/06/11 03:30:35;;;;;;;12.52;9.68;;;21.40;65.00;;;20.95;53.69;100528.06;4945980;28;20047;-80
2023/06/11 03:33:07;;;;;;;13.48;10.00;;;21.40;65.10;;;20.94;53.61;100537.31;4960540;28;20495;-79
2023/06/11 03:35:34;;;;;;;14.00;9.80;;;21.30;65.00;;;20.95;53.58;100532.69;4975906;28;20495;-80
2023/06/11 03:38:11;;;;;;;12.93;10.25;;;21.30;65.00;;;20.95;53.34;100532.69;4978326;28;20528;-80
2023/06/11 03:40:38;;;;;;;12.70;9.95;;;21.30;65.00;;;20.95;53.21;100527.25;4969510;28;20043;-80
2023/06/11 03:43:07;;;;;;;13.82;9.73;;;21.30;65.00;;;20.93;53.28;100541.09;4961456;28;20054;-80
2023/06/11 03:45:37;;;;;;;14.73;10.95;;;21.30;65.00;;;20.92;53.44;100522.38;4950858;28;20050;-79
2023/06/11 03:48:05;;;;;;;12.27;9.93;;;21.30;65.00;;;20.93;53.48;100524.81;4952246;28;20443;-80
2023/06/11 03:50:34;;;;;;;13.93;10.23;;;21.30;65.20;;;20.94;53.75;100525.66;4967612;28;20043;-80
2023/06/11 03:53:01;;;;;;;12.57;9.68;;;21.30;65.30;;;20.91;53.57;100529.72;4956619;28;20121;-80
2023/06/11 03:55:32;;;;;;;12.32;10.10;;;21.30;65.20;;;20.90;54.08;100528.09;4961401;28;20055;-80
2023/06/11 03:57:59;;;;;;;12.80;9.55;;;21.30;65.60;;;20.90;53.63;100528.09;4957990;28;20128;-80
2023/06/11 04:00:30;;;;;;;13.15;9.77;;;21.30;65.30;;;20.91;53.63;100537.03;4980196;28;20062;-79
2023/06/11 04:02:59;;;;;;;15.02;9.98;;;21.30;65.10;;;20.91;53.24;100535.13;4971325;28;20050;-80
2023/06/11 04:05:29;;;;;;;13.18;9.25;;;21.30;65.00;;;20.93;53.79;100532.13;4952805;28;20133;-80
2023/06/11 04:07:58;;;;;;;14.02;10.20;;;21.40;65.30;;;20.93;53.54;100530.22;4951936;28;20066;-80
2023/06/11 04:10:25;;;;;;;11.40;9.43;;;21.40;65.40;;;20.94;53.59;100531.88;4974895;28;20074;-80
2023/06/11 04:12:54;;;;;;;11.73;9.50;;;21.40;65.60;;;20.96;53.80;100540.53;4972055;28;20038;-79
2023/06/11 04:15:22;;;;;;;12.50;9.57;;;21.40;65.20;;;20.99;53.33;100545.41;4977600;28;20070;-80
2023/06/11 04:17:49;;;;;;;13.38;9.40;;;21.40;65.10;;;21.00;53.27;100535.38;4982627;28;20423;-80
2023/06/11 04:20:17;;;;;;;13.65;9.80;;;21.40;65.00;;;21.01;53.69;100543.22;4973040;28;20046;-79
2023/06/11 04:22:45;;;;;;;12.57;9.73;;;21.40;65.00;;;21.03;53.50;100535.63;4956784;28;20042;-80
2023/06/11 04:25:13;;;;;;;13.23;10.02;;;21.50;65.20;;;21.07;53.56;100539.38;4979567;28;20046;-79
2023/06/11 04:27:40;;;;;;;12.10;10.00;;;21.50;65.20;;;21.12;53.57;100533.13;4967025;28;20112;-80
2023/06/11 04:30:13;;;;;;;12.90;10.00;;;21.60;65.40;;;21.16;53.80;100534.19;4959604;28;20050;-80
2023/06/11 04:32:42;;;;;;;14.20;9.70;;;21.60;65.40;;;21.22;53.93;100537.69;4977095;28;20420;-80
2023/06/11 04:35:11;;;;;;;12.00;9.40;;;21.70;65.40;;;21.32;53.46;100545.78;4975899;28;20050;-80
2023/06/11 04:37:40;;;;;;;11.40;9.38;;;21.70;65.20;;;21.42;53.39;100543.00;4952314;28;20415;-80
2023/06/11 04:40:14;;;;;;;12.73;9.20;;;21.90;65.60;;;21.54;53.52;100542.66;4967759;28;20051;-80
2023/06/11 04:42:42;;;;;;;14.98;9.38;;;22.00;65.90;;;21.67;53.32;100546.63;4967730;28;20042;-80
2023/06/11 04:45:12;;;;;;;13.02;9.88;;;22.10;65.60;;;21.79;53.13;100547.91;4979941;28;20043;-80
2023/06/11 04:47:42;;;;;;;12.13;9.10;;;22.20;65.00;;;21.92;52.81;100542.94;4974543;28;20518;-80
2023/06/11 04:50:10;;;;;;;14.25;9.15;;;22.30;65.00;;;22.04;53.17;100544.16;4968609;28;20392;-80
2023/06/11 04:52:38;;;;;;;11.13;9.18;;;22.40;64.80;;;22.16;52.70;100540.28;4951823;28;20051;-80
2023/06/11 04:55:09;;;;;;;13.60;9.13;;;22.60;64.80;;;22.29;52.71;100539.59;4972335;28;20448;-80
2023/06/11 04:57:38;;;;;;;13.85;9.30;;;22.70;64.70;;;22.41;52.23;100545.47;4971812;28;20153;-80
2023/06/11 05:00:08;;;;;;;11.18;8.82;;;22.80;63.90;;;22.52;51.83;100549.69;4971231;28;20311;-80
2023/06/11 05:02:38;;;;;;;12.85;8.50;;;22.90;63.50;;;22.64;52.46;100546.53;4967454;28;20434;-78
2023/06/11 05:05:07;;;;;;;12.70;8.98;;;23.10;64.00;;;22.77;51.65;100542.31;4964275;28;20141;-78
2023/06/11 05:07:35;;;;;;;12.00;8.68;;;23.20;63.30;;;22.88;51.09;100551.97;4956849;28;20094;-78
2023/06/11 05:10:03;;;;;;;10.77;8.80;;;23.30;62.40;;;22.99;51.24;100553.50;4976995;28;20057;-78
2023/06/11 05:12:31;;;;;;;11.65;8.50;;;23.40;62.60;;;23.09;50.61;100547.94;4975776;28;20035;-80
2023/06/11 05:14:59;;;;;;;11.45;9.43;;;23.50;62.00;;;23.19;49.95;100551.63;4955915;28;20046;-80
2023/06/11 05:17:28;;;;;;;15.43;9.38;;;23.60;61.20;;;23.30;50.72;100547.66;4965957;28;20043;-79
2023/06/11 05:19:57;;;;;;;10.88;8.38;;;23.70;62.00;;;23.40;50.06;100544.78;4968056;28;20101;-80
2023/06/11 05:22:24;;;;;;;11.73;9.07;;;23.80;61.00;;;23.49;49.93;100545.72;4967878;28;20054;-79
2023/06/11 05:24:52;;;;;;;10.98;8.75;;;23.90;60.90;;;23.56;49.32;100548.88;4954275;28;20519;-80
2023/06/11 05:27:20;;;;;;;12.88;8.13;;;23.90;60.10;;;23.66;49.85;100549.84;4965774;28;20046;-80
2023/06/11 05:29:47;;;;;;;12.07;9.13;;;24.10;60.80;;;23.73;49.47;100548.38;4976069;28;20047;-80
2023/06/11 05:32:15;;;;;;;11.23;8.20;;;24.20;60.30;;;23.82;49.22;100548.53;4949231;28;20051;-81
2023/06/11 05:34:43;;;;;;;11.57;7.80;;;24.20;59.60;;;23.92;48.66;100550.25;4975170;28;20138;-81
2023/06/11 05:37:14;;;;;;;12.45;7.72;;;24.30;59.10;;;24.03;48.21;100549.78;4957029;28;20550;-79
2023/06/11 05:39:42;;;;;;;12.68;8.10;;;24.40;58.60;;;24.10;47.81;100546.66;4978776;28;20086;-79
2023/06/11 05:42:10;;;;;;;10.20;7.70;;;24.50;58.20;;;24.20;48.62;100545.66;4976673;28;20102;-80
2023/06/11 05:44:38;;;;;;;10.90;7.55;;;24.60;58.90;;;24.29;47.30;100546.59;4970963;28;20038;-79
2023/06/11 05:47:06;;;;;;;12.10;8.00;;;24.70;57.50;;;24.38;47.04;100550.28;4981182;28;20049;-79
2023/06/11 05:49:33;;;;;;;12.65;7.15;;;24.80;57.30;;;24.45;47.08;100550.69;4960498;28;20113;-80
2023/06/11 05:52:01;;;;;;;10.75;7.72;;;24.90;57.20;;;24.54;47.17;100548.84;4970090;28;20049;-79
2023/06/11 05:54:29;;;;;;;11.65;7.43;;;25.00;57.10;;;24.63;46.96;100557.94;4981933;28;20412;-79
2023/06/11 05:56:58;;;;;;;9.95;7.88;;;25.10;57.20;;;24.72;46.80;100549.88;4978667;28;20046;-79
2023/06/11 05:59:25;;;;;;;10.00;7.95;;;25.20;56.60;;;24.81;47.41;100558.16;4977558;28;20047;-79
2023/06/11 06:01:53;;;;;;;11.75;7.75;;;25.30;57.50;;;24.91;47.04;100555.22;4951389;28;20058;-79
2023/06/11 06:04:22;;;;;;;9.25;7.10;;;25.40;56.70;;;24.97;46.32;100553.19;4979109;28;20124;-79
2023/06/11 06:06:50;;;;;;;12.27;7.78;;;25.50;56.00;;;25.05;46.22;100558.75;4970428;28;20051;-79
2023/06/11 06:09:17;;;;;;;10.45;7.45;;;25.60;55.70;;;25.14;46.52;100556.13;4981659;28;20143;-79
2023/06/11 06:11:46;;;;;;;9.75;7.68;;;25.70;56.00;;;25.25;46.82;100556.72;4976268;28;20137;-81
2023/06/11 06:14:14;;;;;;;12.70;7.20;;;25.80;56.10;;;25.34;46.39;100566.59;4986983;28;20464;-81
2023/06/11 06:16:41;;;;;;;8.38;6.55;;;25.90;55.80;;;25.41;45.08;100558.75;4966185;28;20939;-81
2023/06/11 06:19:14;;;;;;;10.73;7.22;;;25.90;54.30;;;25.49;45.16;100568.16;4951405;28;20061;-81
2023/06/11 06:21:41;;;;;;;10.93;7.85;;;26.00;54.50;;;25.58;45.27;100571.78;4965502;28;20530;-81
2023/06/11 06:24:11;;;;;;;9.18;7.32;;;26.10;54.80;;;25.66;45.56;100564.75;4962350;28;20045;-80
2023/06/11 06:26:40;;;;;;;8.07;6.43;;;26.20;54.70;;;25.76;45.58;100572.72;4983758;28;20049;-80
2023/06/11 06:29:09;;;;;;;9.65;6.50;;;26.30;54.70;;;25.87;45.18;100567.84;4976773;28;20043;-80
2023/06/11 06:31:38;;;;;;;11.55;6.40;;;26.40;54.20;;;25.97;44.83;100564.84;4978206;28;20143;-80
2023/06/11 06:34:07;;;;;;;10.15;6.55;;;26.50;53.70;;;26.06;45.60;100568.44;4973667;28;20039;-80
2023/06/11 06:36:37;;;;;;;9.52;6.32;;;26.60;54.70;;;26.17;44.23;100569.00;4955645;28;20503;-84
2023/06/11 06:39:04;;;;;;;7.13;5.80;;;26.70;53.00;;;26.29;44.77;100568.41;4958582;28;20050;-81
2023/06/11 06:41:32;;;;;;;9.02;5.90;;;26.90;53.70;;;26.43;44.32;100566.41;4971901;28;20581;-81
2023/06/11 06:44:08;;;;;;;8.15;5.68;;;27.00;54.00;;;26.56;44.93;100573.72;4986067;28;20125;-83
2023/06/11 06:46:36;;;;;;;8.80;6.03;;;27.10;53.80;;;26.68;42.97;100571.16;4969204;28;20061;-77
2023/06/11 06:49:04;;;;;;;8.55;6.35;;;27.20;51.90;;;26.80;43.25;100570.56;4967600;28;20083;-79
2023/06/11 06:51:32;;;;;;;7.80;5.32;;;27.40;52.30;;;26.92;43.24;100578.16;4978799;28;20097;-80
2023/06/11 06:54:00;;;;;;;9.77;5.65;;;27.50;51.90;;;27.03;42.43;100571.25;4977344;28;20109;-80
2023/06/11 06:56:28;;;;;;;9.80;5.88;;;27.60;50.70;;;27.12;41.54;100566.63;4973937;28;20054;-84
2023/06/11 06:58:55;;;;;;;7.82;5.60;;;27.70;49.90;;;27.22;40.37;100571.00;4952301;28;20455;-79
2023/06/11 07:01:24;;;;;;;6.78;5.32;;;27.80;48.50;;;27.28;40.92;100572.47;4968980;28;20051;-79
2023/06/11 07:03:51;;;;;;;8.52;5.70;;;27.90;48.70;;;27.35;40.60;100570.03;4979379;28;20047;-79
2023/06/11 07:06:19;;;;;;;8.55;5.22;;;28.00;49.20;;;27.42;41.44;100575.84;4973819;28;20085;-79
2023/06/11 07:08:47;;;;;;;8.55;5.63;;;28.00;49.60;;;27.48;40.69;100578.44;4953593;28;20062;-79
2023/06/11 07:11:15;;;;;;;7.28;5.53;;;28.20;48.90;;;27.53;40.21;100576.34;4974320;28;20491;-80
2023/06/11 07:13:45;;;;;;;7.70;5.05;;;28.20;48.30;;;27.59;39.27;100580.53;4976262;28;20062;-79
2023/06/11 07:16:13;;;;;;;8.77;5.30;;;28.20;47.30;;;27.64;40.36;100579.56;4971108;28;20053;-86
2023/06/11 07:18:46;;;;;;;7.80;5.20;;;28.30;48.00;;;27.68;40.34;100575.84;4968633;28;20504;-80
2023/06/11 07:21:14;;;;;;;9.48;5.75;;;28.30;47.60;;;27.70;38.23;100587.28;4969423;28;20058;-81
2023/06/11 07:23:42;;;;;;;7.90;5.40;;;28.40;45.70;;;27.70;38.85;100581.00;4951347;28;20047;-81
2023/06/11 07:26:13;;;;;;;7.70;5.10;;;28.40;46.40;;;27.74;39.79;100584.75;4953393;28;20053;-82
2023/06/11 07:28:41;;;;;;;7.13;5.13;;;28.40;47.10;;;27.78;39.78;100585.72;4954695;28;20050;-82
2023/06/11 07:31:08;;;;;;;7.13;5.05;;;28.40;46.80;;;27.76;39.09;100582.47;4969649;28;20042;-82
2023/06/11 07:33:38;;;;;;;8.15;5.38;;;28.50;46.50;;;27.80;38.42;100588.13;4973432;28;20043;-82
2023/06/11 07:36:07;;;;;;;9.40;5.53;;;28.50;45.70;;;27.84;37.99;100594.56;4951820;28;20047;-81
2023/06/11 07:38:35;;;;;;;10.68;5.55;;;28.50;45.20;;;27.88;38.42;100595.53;4967162;28;20078;-82
2023/06/11 07:41:02;;;;;;;8.85;5.13;;;28.60;45.70;;;27.91;38.01;100597.63;4982612;28;20078;-82
2023/06/11 07:43:30;;;;;;;11.13;5.28;;;28.60;45.20;;;27.93;38.34;100587.94;4978415;28;20034;-80
2023/06/11 07:45:58;;;;;;;7.40;5.50;;;28.60;45.40;;;27.96;39.06;100590.06;4977268;28;20042;-82
2023/06/11 07:48:25;;;;;;;8.00;5.72;;;28.70;45.80;;;27.98;38.84;100587.78;4968925;28;20078;-81
2023/06/11 07:50:53;;;;;;;10.38;5.30;;;28.70;45.50;;;27.99;37.22;100591.31;4974859;28;20054;-82
2023/06/11 07:53:24;;;;;;;7.15;5.30;;;28.70;44.10;;;28.00;38.17;100592.94;4965334;28;20073;-82
2023/06/11 07:55:56;;;;;;;7.93;5.38;;;28.70;45.00;;;28.01;36.65;100589.03;4980818;28;20058;-80
2023/06/11 07:58:24;;;;;;;8.25;5.20;;;28.70;43.40;;;28.04;37.12;100588.41;4979591;28;20054;-80
2023/06/11 08:00:52;;;;;;;8.57;5.38;;;28.70;43.10;;;28.06;37.41;100588.91;4978638;28;20047;-80
2023/06/11 08:03:19;;;;;;;6.30;5.25;;;28.80;43.70;;;28.11;36.93;100593.38;4971682;28;20043;-80
2023/06/11 08:05:47;;;;;;;6.72;5.32;;;28.80;43.60;;;28.13;37.13;100594.69;4974068;28;20156;-80
2023/06/11 08:08:14;;;;;;;8.32;5.50;;;28.80;43.70;;;28.13;35.83;100591.94;4974029;28;20126;-80
2023/06/11 08:10:45;;;;;;;8.32;5.20;;;28.80;41.70;;;28.15;36.51;100589.66;4969552;28;20050;-82
2023/06/11 08:13:14;;;;;;;8.43;5.18;;;28.80;42.40;;;28.14;37.17;100596.28;4969700;28;20948;-82
2023/06/11 08:15:41;;;;;;;6.68;5.03;;;28.80;43.60;;;28.15;36.81;100584.19;4970587;28;20387;-82
2023/06/11 08:18:08;;;;;;;8.18;5.45;;;28.80;43.00;;;28.20;36.67;100584.00;4977099;28;20058;-82
2023/06/11 08:20:35;;;;;;;8.57;5.57;;;28.80;42.40;;;28.22;36.22;100592.72;4969129;28;20070;-82
2023/06/11 08:23:03;;;;;;;7.25;5.07;;;28.90;42.10;;;28.28;37.31;100587.88;4967315;28;20066;-82
2023/06/11 08:25:31;;;;;;;7.50;5.15;;;29.00;44.30;;;28.36;38.74;100589.00;4965689;28;20451;-82
2023/06/11 08:28:00;;;;;;;6.55;4.60;;;29.00;45.60;;;28.38;36.24;100582.06;4982534;28;20053;-82
2023/06/11 08:30:27;;;;;;;7.38;4.82;;;29.10;42.90;;;28.41;37.44;100580.59;4986602;28;20051;-82
2023/06/11 08:32:55;;;;;;;5.97;4.78;;;29.10;44.10;;;28.41;36.59;100581.41;4976783;28;20077;-82
2023/06/11 08:35:22;;;;;;;8.48;4.70;;;29.10;43.00;;;28.43;37.03;100587.34;4975563;28;20046;-82
2023/06/11 08:37:49;;;;;;;10.02;4.75;;;29.10;43.30;;;28.46;35.58;100580.41;4979947;28;20056;-81
2023/06/11 08:40:16;;;;;;;6.35;4.32;;;29.10;41.90;;;28.45;34.75;100587.84;4973934;28;20403;-82
2023/06/11 08:42:44;;;;;;;6.82;4.70;;;29.10;40.90;;;28.48;35.70;100586.38;4961825;28;20500;-82
2023/06/11 08:45:13;;;;;;;8.25;4.85;;;29.10;42.10;;;28.47;35.54;100576.53;4977847;28;20038;-82
2023/06/11 08:47:43;;;;;;;6.90;4.65;;;29.10;41.20;;;28.45;35.50;100587.84;4968039;28;20505;-82
2023/06/11 08:50:11;;;;;;;5.80;4.38;;;29.10;41.60;;;28.46;35.57;100599.63;4970118;28;20051;-80
2023/06/11 08:52:41;;;;;;;9.07;4.40;;;29.10;41.60;;;28.49;35.26;100594.25;4965979;28;20043;-81
2023/06/11 08:55:10;;;;;;;6.67;4.03;;;29.10;41.20;;;28.53;35.88;100582.63;4968599;28;20066;-81
2023/06/11 08:57:38;;;;;;;6.57;4.65;;;29.10;41.90;;;28.52;35.63;100581.84;4967119;28;20046;-81
2023/06/11 09:00:09;;;;;;;7.47;4.55;;;29.10;41.60;;;28.49;35.28;100586.03;4968407;28;20049;-81
2023/06/11 09:02:39;;;;;;;7.68;4.53;;;29.10;41.20;;;28.49;36.07;100590.72;4968436;28;20094;-81
2023/06/11 09:08:50;;;;;;;;;;;29.10;42.30;;;28.56;35.45;100582.00;4967564;28;20050;-93
2023/06/11 09:21:19;;;;;;;8.82;4.40;;;29.10;42.30;;;28.52;36.32;100575.56;5172498;23;20066;-94
2023/06/11 09:23:48;;;;;;;7.20;4.28;;;29.10;42.60;;;28.51;35.94;100584.94;4927976;29;20147;-90
2023/06/11 09:26:18;;;;;;;6.28;4.30;;;29.10;41.80;;;28.47;36.26;100590.25;4925562;29;20545;-81
2023/06/11 09:31:33;;;;;;;7.07;4.88;;;29.10;40.90;;;28.43;34.88;100583.81;4925396;29;20043;-79
2023/06/11 09:34:17;;;;;;;10.40;4.47;;;29.10;40.70;;;28.40;35.86;100574.31;4929712;28;20039;-77
2023/06/11 09:37:18;;;;;;;7.95;4.90;;;29.10;41.50;;;28.41;34.52;100583.34;4926285;29;20058;-79
2023/06/11 09:39:48;;;;;;;9.25;4.72;;;29.10;40.30;;;28.34;33.67;100572.06;4896793;29;20051;-76
2023/06/11 09:42:26;;;;;;;6.82;4.78;;;29.00;39.50;;;28.32;34.74;100585.28;4905646;29;20044;-77
2023/06/11 09:44:58;;;;;;;9.10;4.80;;;29.00;40.10;;;28.30;35.01;100577.34;4920136;29;20051;-78
2023/06/11 09:47:26;;;;;;;6.72;4.65;;;29.00;40.70;;;28.29;33.51;100583.97;4926851;29;20083;-78
2023/06/11 09:49:54;;;;;;;8.32;5.03;;;29.00;38.80;;;28.31;34.57;100586.41;4920056;29;20134;-79
2023/06/11 09:52:23;;;;;;;9.75;4.97;;;29.00;40.40;;;28.32;32.74;100582.53;4920282;29;20075;-79
2023/06/11 09:54:53;;;;;;;8.38;5.38;;;29.00;38.20;;;28.32;32.65;100577.06;4924273;29;20126;-78
2023/06/11 09:57:24;;;;;;;6.22;4.63;;;29.00;38.10;;;28.30;33.02;100579.28;4933254;28;20139;-78
2023/06/11 10:02:41;;;;;;;10.40;4.80;;;28.90;35.40;;;28.26;32.05;100589.31;4914500;29;20555;-78
2023/06/11 10:05:12;;;;;;;12.80;4.82;;;28.90;36.40;;;28.24;32.47;100595.94;4917920;29;20164;-79
2023/06/11 10:07:45;;;;;;;;;;;28.80;37.70;;;28.26;32.36;100575.59;4917942;29;20048;-77
2023/06/11 10:10:16;;;;;;;8.05;4.90;;;28.80;36.70;;;28.24;32.50;100592.38;4924562;29;19930;-79
2023/06/11 10:12:52;;;;;;;9.45;5.10;;;28.80;36.70;;;28.29;32.64;100588.66;4924292;29;20047;-78
2023/06/11 10:15:23;;;;;;;6.53;4.88;;;28.90;37.40;;;28.32;33.14;100585.28;4917258;29;20040;-77
2023/06/11 10:17:57;;;;;;;7.32;5.13;;;28.90;37.70;;;28.35;34.07;100585.44;4917444;29;20078;-79
2023/06/11 10:20:29;;;;;;;6.82;5.13;;;29.00;39.20;;;28.35;32.40;100581.88;4921447;29;20505;-78
2023/06/11 10:23:12;;;;;;;8.38;4.80;;;29.00;37.40;;;28.37;34.12;100585.13;4925014;29;20044;-79
2023/06/11 10:25:41;;;;;;;5.93;4.60;;;29.00;39.30;;;28.39;33.35;100588.34;4926444;28;20074;-78
2023/06/11 10:28:10;;;;;;;9.45;5.22;;;29.00;38.50;;;28.41;32.74;100586.09;4928547;29;20067;-78
2023/06/11 10:30:37;;;;;;;8.43;5.22;;;29.10;37.70;;;28.45;34.33;100582.38;4927794;29;20107;-78
2023/06/11 10:33:05;;;;;;;6.00;4.97;;;29.10;40.00;;;28.48;32.16;100575.41;4922969;29;20046;-78
2023/06/11 10:35:33;;;;;;;8.60;5.00;;;29.10;36.70;;;28.47;33.23;100582.03;4933646;29;20035;-78
2023/06/11 10:38:07;;;;;;;8.98;4.60;;;29.10;38.10;;;28.42;32.21;100574.78;4940995;28;20070;-79
2023/06/11 10:40:50;;;;;;;7.00;5.07;;;29.10;36.60;;;28.38;31.83;100584.00;4928222;29;20057;-79
2023/06/11 10:43:22;;;;;;;6.85;4.95;;;29.10;36.50;;;28.37;32.03;100565.91;4924694;29;20456;-78
2023/06/11 10:46:10;;;;;;;8.82;4.78;;;29.00;37.00;;;28.39;32.06;100577.38;4937798;29;20039;-80
2023/06/11 10:49:00;;;;;;;9.70;4.75;;;29.00;36.90;;;28.38;31.50;100575.75;4932428;29;20131;-79
2023/06/11 10:51:38;;;;;;;7.93;4.90;;;29.00;36.30;;;28.38;31.99;100581.25;4920695;29;20142;-81
2023/06/11 10:54:07;;;;;;;7.43;5.20;;;29.00;37.00;;;28.37;31.60;100576.91;4943590;28;20149;-79